sensor_id;sensor_type;location;lat;lon;timestamp;pressure;altitude;pressure_sealevel;temperature;humidity
74893;BME280;63446;56.272;43.922;2023-05-13T00:01:14;100745.41;;;15.63;56.20
74893;BME280;63446;56.272;43.922;2023-05-13T00:03:40;100744.63;;;15.63;55.81
74893;BME280;63446;56.272;43.922;2023-05-13T00:06:06;100736.94;;;15.61;56.10
74893;BME280;63446;56.272;43.922;2023-05-13T00:08:32;100735.34;;;15.60;56.30
74893;BME280;63446;56.272;43.922;2023-05-13T00:10:58;100739.88;;;15.60;56.53
74893;BME280;63446;56.272;43.922;2023-05-13T00:13:24;100737.81;;;15.57;56.70
74893;BME280;63446;56.272;43.922;2023-05-13T00:15:50;100742.31;;;15.56;56.80
74893;BME280;63446;56.272;43.922;2023-05-13T00:18:15;100735.72;;;15.54;56.75
74893;BME280;63446;56.272;43.922;2023-05-13T00:20:41;100736.09;;;15.47;56.44
74893;BME280;63446;56.272;43.922;2023-05-13T00:23:07;100737.09;;;15.51;56.44
74893;BME280;63446;56.272;43.922;2023-05-13T00:25:33;100744.28;;;15.51;56.59
74893;BME280;63446;56.272;43.922;2023-05-13T00:28:00;100738.19;;;15.50;57.08
74893;BME280;63446;56.272;43.922;2023-05-13T00:30:26;100743.78;;;15.49;57.44
74893;BME280;63446;56.272;43.922;2023-05-13T00:32:53;100736.69;;;15.44;57.33
74893;BME280;63446;56.272;43.922;2023-05-13T00:35:19;100733.81;;;15.41;57.11
74893;BME280;63446;56.272;43.922;2023-05-13T00:37:45;100734.09;;;15.39;57.08
74893;BME280;63446;56.272;43.922;2023-05-13T00:40:22;100735.47;;;15.36;57.10
74893;BME280;63446;56.272;43.922;2023-05-13T00:42:49;100725.13;;;15.35;57.04
74893;BME280;63446;56.272;43.922;2023-05-13T00:45:15;100734.69;;;15.36;57.06
74893;BME280;63446;56.272;43.922;2023-05-13T00:47:41;100727.78;;;15.35;57.18
74893;BME280;63446;56.272;43.922;2023-05-13T00:50:09;100736.03;;;15.33;57.08
74893;BME280;63446;56.272;43.922;2023-05-13T00:52:37;100733.38;;;15.33;57.08
74893;BME280;63446;56.272;43.922;2023-05-13T00:55:04;100732.31;;;15.34;57.08
74893;BME280;63446;56.272;43.922;2023-05-13T00:57:31;100733.09;;;15.35;57.26
74893;BME280;63446;56.272;43.922;2023-05-13T00:59:57;100748.00;;;15.36;57.38
74893;BME280;63446;56.272;43.922;2023-05-13T01:02:33;100750.19;;;15.34;57.75
74893;BME280;63446;56.272;43.922;2023-05-13T01:05:29;100737.13;;;15.32;57.83
74893;BME280;63446;56.272;43.922;2023-05-13T01:10:41;100752.03;;;15.33;57.55
74893;BME280;63446;56.272;43.922;2023-05-13T01:13:12;100749.34;;;15.33;57.53
74893;BME280;63446;56.272;43.922;2023-05-13T01:18:36;100756.19;;;15.39;57.41
74893;BME280;63446;56.272;43.922;2023-05-13T01:21:04;100750.28;;;15.43;57.44
74893;BME280;63446;56.272;43.922;2023-05-13T01:23:31;100756.84;;;15.50;57.18
74893;BME280;63446;56.272;43.922;2023-05-13T01:25:57;100763.16;;;15.54;56.05
74893;BME280;63446;56.272;43.922;2023-05-13T01:28:23;100762.78;;;15.61;56.00
74893;BME280;63446;56.272;43.922;2023-05-13T01:30:52;100765.59;;;15.70;56.08
74893;BME280;63446;56.272;43.922;2023-05-13T01:33:18;100767.59;;;15.78;56.16
74893;BME280;63446;56.272;43.922;2023-05-13T01:35:46;100757.53;;;15.89;56.21
74893;BME280;63446;56.272;43.922;2023-05-13T01:38:14;100757.34;;;15.99;56.02
74893;BME280;63446;56.272;43.922;2023-05-13T01:40:45;100761.91;;;16.12;55.51
74893;BME280;63446;56.272;43.922;2023-05-13T01:43:11;100766.94;;;16.27;55.39
74893;BME280;63446;56.272;43.922;2023-05-13T01:45:37;100758.34;;;16.44;55.17
74893;BME280;63446;56.272;43.922;2023-05-13T01:48:03;100758.59;;;16.70;54.71
74893;BME280;63446;56.272;43.922;2023-05-13T01:50:40;100758.06;;;17.86;52.64
74893;BME280;63446;56.272;43.922;2023-05-13T01:53:06;100764.31;;;19.39;49.81
74893;BME280;63446;56.272;43.922;2023-05-13T01:55:33;100772.50;;;20.95;47.16
74893;BME280;63446;56.272;43.922;2023-05-13T01:58:01;100761.72;;;22.44;44.83
74893;BME280;63446;56.272;43.922;2023-05-13T02:00:28;100767.75;;;24.09;42.02
74893;BME280;63446;56.272;43.922;2023-05-13T02:02:55;100761.03;;;25.74;39.44
74893;BME280;63446;56.272;43.922;2023-05-13T02:05:20;100755.81;;;27.29;36.80
74893;BME280;63446;56.272;43.922;2023-05-13T02:07:47;100758.06;;;28.78;34.97
74893;BME280;63446;56.272;43.922;2023-05-13T02:10:13;100761.75;;;29.57;33.98
74893;BME280;63446;56.272;43.922;2023-05-13T02:12:39;100759.78;;;29.43;33.95
74893;BME280;63446;56.272;43.922;2023-05-13T02:15:06;100762.13;;;30.05;32.95
74893;BME280;63446;56.272;43.922;2023-05-13T02:17:32;100761.97;;;30.80;31.76
74893;BME280;63446;56.272;43.922;2023-05-13T02:19:59;100769.81;;;31.93;30.38
74893;BME280;63446;56.272;43.922;2023-05-13T02:22:24;100763.31;;;32.55;29.78
74893;BME280;63446;56.272;43.922;2023-05-13T02:24:50;100766.41;;;33.69;28.52
74893;BME280;63446;56.272;43.922;2023-05-13T02:27:16;100768.66;;;34.97;27.13
74893;BME280;63446;56.272;43.922;2023-05-13T02:29:42;100766.34;;;35.65;25.88
74893;BME280;63446;56.272;43.922;2023-05-13T02:32:09;100769.63;;;36.34;25.38
74893;BME280;63446;56.272;43.922;2023-05-13T02:34:35;100772.59;;;37.33;24.61
74893;BME280;63446;56.272;43.922;2023-05-13T02:37:02;100771.13;;;36.77;24.56
74893;BME280;63446;56.272;43.922;2023-05-13T02:39:30;100766.25;;;36.14;25.06
74893;BME280;63446;56.272;43.922;2023-05-13T02:41:57;100766.34;;;35.65;25.55
74893;BME280;63446;56.272;43.922;2023-05-13T02:44:27;100770.56;;;36.28;25.21
74893;BME280;63446;56.272;43.922;2023-05-13T02:46:53;100767.03;;;36.14;24.99
74893;BME280;63446;56.272;43.922;2023-05-13T02:49:19;100759.59;;;35.99;25.37
74893;BME280;63446;56.272;43.922;2023-05-13T02:51:44;100767.63;;;35.60;25.35
74893;BME280;63446;56.272;43.922;2023-05-13T02:54:11;100756.66;;;35.89;24.59
74893;BME280;63446;56.272;43.922;2023-05-13T02:56:37;100757.91;;;35.72;24.44
74893;BME280;63446;56.272;43.922;2023-05-13T02:59:03;100755.31;;;35.49;24.49
74893;BME280;63446;56.272;43.922;2023-05-13T03:01:29;100757.63;;;35.83;24.10
74893;BME280;63446;56.272;43.922;2023-05-13T03:03:55;100764.31;;;36.56;23.59
74893;BME280;63446;56.272;43.922;2023-05-13T03:06:21;100754.28;;;37.52;22.53
74893;BME280;63446;56.272;43.922;2023-05-13T03:08:47;100757.63;;;38.78;21.92
74893;BME280;63446;56.272;43.922;2023-05-13T03:11:13;100753.75;;;40.12;20.88
74893;BME280;63446;56.272;43.922;2023-05-13T03:13:39;100762.59;;;41.52;19.61
74893;BME280;63446;56.272;43.922;2023-05-13T03:16:05;100759.28;;;42.46;18.72
74893;BME280;63446;56.272;43.922;2023-05-13T03:18:30;100750.38;;;42.92;18.44
74893;BME280;63446;56.272;43.922;2023-05-13T03:20:58;100754.81;;;43.86;17.46
74893;BME280;63446;56.272;43.922;2023-05-13T03:23:24;100752.97;;;44.98;17.04
74893;BME280;63446;56.272;43.922;2023-05-13T03:25:53;100761.22;;;46.18;16.15
74893;BME280;63446;56.272;43.922;2023-05-13T03:28:18;100753.38;;;47.31;15.41
74893;BME280;63446;56.272;43.922;2023-05-13T03:30:44;100759.88;;;48.33;14.95
74893;BME280;63446;56.272;43.922;2023-05-13T03:33:17;100754.78;;;49.05;14.55
74893;BME280;63446;56.272;43.922;2023-05-13T03:35:44;100755.34;;;49.79;13.84
74893;BME280;63446;56.272;43.922;2023-05-13T03:38:10;100751.41;;;50.46;13.35
74893;BME280;63446;56.272;43.922;2023-05-13T03:40:41;100757.59;;;50.85;13.21
74893;BME280;63446;56.272;43.922;2023-05-13T03:43:07;100757.69;;;51.53;12.93
74893;BME280;63446;56.272;43.922;2023-05-13T03:45:36;100753.00;;;52.11;12.91
74893;BME280;63446;56.272;43.922;2023-05-13T03:48:06;100747.25;;;52.81;12.42
74893;BME280;63446;56.272;43.922;2023-05-13T03:50:32;100744.66;;;53.42;12.05
74893;BME280;63446;56.272;43.922;2023-05-13T03:52:58;100750.03;;;54.00;11.73
74893;BME280;63446;56.272;43.922;2023-05-13T03:55:24;100741.47;;;54.46;11.75
74893;BME280;63446;56.272;43.922;2023-05-13T03:57:50;100740.25;;;54.87;11.24
74893;BME280;63446;56.272;43.922;2023-05-13T04:00:18;100740.50;;;55.14;10.87
74893;BME280;63446;56.272;43.922;2023-05-13T04:02:47;100741.88;;;55.38;11.02
74893;BME280;63446;56.272;43.922;2023-05-13T04:05:13;100743.06;;;55.60;11.08
74893;BME280;63446;56.272;43.922;2023-05-13T04:07:40;100741.91;;;55.88;10.90
74893;BME280;63446;56.272;43.922;2023-05-13T04:10:06;100734.28;;;56.16;10.58
74893;BME280;63446;56.272;43.922;2023-05-13T04:12:33;100738.88;;;56.46;10.58
74893;BME280;63446;56.272;43.922;2023-05-13T04:14:59;100733.94;;;56.81;10.56
74893;BME280;63446;56.272;43.922;2023-05-13T04:17:26;100726.84;;;57.17;10.56
74893;BME280;63446;56.272;43.922;2023-05-13T04:19:52;100727.09;;;57.38;10.40
74893;BME280;63446;56.272;43.922;2023-05-13T04:22:20;100725.97;;;57.61;10.15
74893;BME280;63446;56.272;43.922;2023-05-13T04:24:48;100722.81;;;57.57;10.33
74893;BME280;63446;56.272;43.922;2023-05-13T04:27:16;100724.03;;;57.63;10.16
74893;BME280;63446;56.272;43.922;2023-05-13T04:29:43;100722.84;;;57.66;9.96
74893;BME280;63446;56.272;43.922;2023-05-13T04:32:10;100721.13;;;57.90;9.72
74893;BME280;63446;56.272;43.922;2023-05-13T04:34:41;100714.41;;;58.15;9.82
74893;BME280;63446;56.272;43.922;2023-05-13T04:37:06;100714.88;;;58.02;10.02
74893;BME280;63446;56.272;43.922;2023-05-13T04:39:33;100707.78;;;57.83;9.78
74893;BME280;63446;56.272;43.922;2023-05-13T04:41:59;100716.22;;;58.10;9.79
74893;BME280;63446;56.272;43.922;2023-05-13T04:44:25;100707.69;;;57.54;10.18
74893;BME280;63446;56.272;43.922;2023-05-13T04:46:51;100706.03;;;57.41;10.07
74893;BME280;63446;56.272;43.922;2023-05-13T04:49:17;100709.94;;;57.19;10.14
74893;BME280;63446;56.272;43.922;2023-05-13T04:51:43;100710.25;;;55.74;10.33
74893;BME280;63446;56.272;43.922;2023-05-13T04:54:09;100708.69;;;55.81;10.72
74893;BME280;63446;56.272;43.922;2023-05-13T04:56:35;100716.44;;;56.23;10.49
74893;BME280;63446;56.272;43.922;2023-05-13T04:59:00;100714.81;;;56.82;9.97
74893;BME280;63446;56.272;43.922;2023-05-13T05:01:27;100701.31;;;57.27;10.04
74893;BME280;63446;56.272;43.922;2023-05-13T05:03:54;100711.72;;;57.41;10.03
74893;BME280;63446;56.272;43.922;2023-05-13T05:06:20;100700.69;;;57.18;10.06
74893;BME280;63446;56.272;43.922;2023-05-13T05:08:47;100691.88;;;57.24;10.05
74893;BME280;63446;56.272;43.922;2023-05-13T05:11:13;100694.19;;;57.08;10.14
74893;BME280;63446;56.272;43.922;2023-05-13T05:13:39;100704.53;;;56.86;10.29
74893;BME280;63446;56.272;43.922;2023-05-13T05:16:05;100697.09;;;56.29;10.22
74893;BME280;63446;56.272;43.922;2023-05-13T05:18:32;100697.00;;;55.77;10.82
74893;BME280;63446;56.272;43.922;2023-05-13T05:20:58;100686.44;;;55.52;10.51
74893;BME280;63446;56.272;43.922;2023-05-13T05:23:24;100697.22;;;55.46;10.81
74893;BME280;63446;56.272;43.922;2023-05-13T05:25:50;100695.03;;;55.87;10.59
74893;BME280;63446;56.272;43.922;2023-05-13T05:28:16;100695.91;;;56.49;10.51
74893;BME280;63446;56.272;43.922;2023-05-13T05:30:42;100686.78;;;57.13;10.20
74893;BME280;63446;56.272;43.922;2023-05-13T05:33:24;100692.09;;;57.82;9.94
74893;BME280;63446;56.272;43.922;2023-05-13T05:35:51;100693.03;;;58.33;9.47
74893;BME280;63446;56.272;43.922;2023-05-13T05:38:27;100689.81;;;58.78;9.79
74893;BME280;63446;56.272;43.922;2023-05-13T05:41:32;100689.22;;;59.20;9.73
74893;BME280;63446;56.272;43.922;2023-05-13T05:45:37;100689.88;;;59.71;9.40
74893;BME280;63446;56.272;43.922;2023-05-13T05:51:45;100688.50;;;60.37;9.02
74893;BME280;63446;56.272;43.922;2023-05-13T05:54:17;100689.13;;;60.47;8.70
74893;BME280;63446;56.272;43.922;2023-05-13T05:56:46;100686.63;;;60.41;8.93
74893;BME280;63446;56.272;43.922;2023-05-13T05:59:13;100681.84;;;60.01;9.17
74893;BME280;63446;56.272;43.922;2023-05-13T06:01:40;100677.72;;;58.58;9.49
74893;BME280;63446;56.272;43.922;2023-05-13T06:04:06;100665.22;;;56.21;10.07
74893;BME280;63446;56.272;43.922;2023-05-13T06:06:32;100664.84;;;53.73;11.22
74893;BME280;63446;56.272;43.922;2023-05-13T06:08:58;100676.53;;;51.31;11.88
74893;BME280;63446;56.272;43.922;2023-05-13T06:11:27;100671.03;;;49.15;12.55
74893;BME280;63446;56.272;43.922;2023-05-13T06:13:53;100664.66;;;47.20;13.53
74893;BME280;63446;56.272;43.922;2023-05-13T06:16:21;100663.41;;;45.50;14.56
74893;BME280;63446;56.272;43.922;2023-05-13T06:18:47;100657.66;;;44.14;15.51
74893;BME280;63446;56.272;43.922;2023-05-13T06:21:13;100662.16;;;42.87;16.05
74893;BME280;63446;56.272;43.922;2023-05-13T06:23:39;100666.88;;;41.71;16.87
74893;BME280;63446;56.272;43.922;2023-05-13T06:26:20;100667.31;;;40.59;17.73
74893;BME280;63446;56.272;43.922;2023-05-13T06:28:48;100668.31;;;39.59;18.29
74893;BME280;63446;56.272;43.922;2023-05-13T06:31:50;100669.13;;;38.42;19.29
74893;BME280;63446;56.272;43.922;2023-05-13T06:34:25;100660.22;;;37.50;20.28
74893;BME280;63446;56.272;43.922;2023-05-13T06:37:04;100664.09;;;36.54;20.66
74893;BME280;63446;56.272;43.922;2023-05-13T06:39:58;100663.28;;;35.57;21.17
74893;BME280;63446;56.272;43.922;2023-05-13T06:42:25;100666.19;;;34.84;21.58
74893;BME280;63446;56.272;43.922;2023-05-13T06:44:58;100668.00;;;34.18;22.32
74893;BME280;63446;56.272;43.922;2023-05-13T06:47:32;100669.00;;;33.65;22.31
74893;BME280;63446;56.272;43.922;2023-05-13T06:49:57;100665.44;;;33.21;22.84
74893;BME280;63446;56.272;43.922;2023-05-13T06:52:23;100657.03;;;32.81;23.47
74893;BME280;63446;56.272;43.922;2023-05-13T06:54:49;100670.66;;;32.57;23.49
74893;BME280;63446;56.272;43.922;2023-05-13T06:57:15;100684.69;;;32.29;23.56
74893;BME280;63446;56.272;43.922;2023-05-13T06:59:43;100671.38;;;31.97;24.20
74893;BME280;63446;56.272;43.922;2023-05-13T07:02:09;100672.03;;;31.67;24.54
74893;BME280;63446;56.272;43.922;2023-05-13T07:04:36;100672.34;;;31.34;24.43
74893;BME280;63446;56.272;43.922;2023-05-13T07:07:02;100667.16;;;30.99;24.68
74893;BME280;63446;56.272;43.922;2023-05-13T07:09:28;100664.56;;;30.67;25.15
74893;BME280;63446;56.272;43.922;2023-05-13T07:11:54;100670.19;;;30.38;25.47
74893;BME280;63446;56.272;43.922;2023-05-13T07:14:20;100658.56;;;30.09;25.65
74893;BME280;63446;56.272;43.922;2023-05-13T07:16:46;100664.88;;;29.84;25.18
74893;BME280;63446;56.272;43.922;2023-05-13T07:19:12;100665.31;;;29.61;25.90
74893;BME280;63446;56.272;43.922;2023-05-13T07:21:41;100661.41;;;29.41;26.40
74893;BME280;63446;56.272;43.922;2023-05-13T07:24:08;100662.19;;;29.27;27.00
74893;BME280;63446;56.272;43.922;2023-05-13T07:26:34;100664.50;;;29.14;26.63
74893;BME280;63446;56.272;43.922;2023-05-13T07:29:00;100663.31;;;29.01;27.04
74893;BME280;63446;56.272;43.922;2023-05-13T07:31:26;100667.94;;;28.90;27.03
74893;BME280;63446;56.272;43.922;2023-05-13T07:33:53;100656.25;;;28.82;27.08
74893;BME280;63446;56.272;43.922;2023-05-13T07:36:19;100660.13;;;28.70;26.74
74893;BME280;63446;56.272;43.922;2023-05-13T07:38:45;100657.78;;;28.62;27.02
74893;BME280;63446;56.272;43.922;2023-05-13T07:41:10;100656.22;;;28.57;26.89
74893;BME280;63446;56.272;43.922;2023-05-13T07:43:36;100658.91;;;28.54;26.52
74893;BME280;63446;56.272;43.922;2023-05-13T07:46:05;100661.63;;;28.50;26.47
74893;BME280;63446;56.272;43.922;2023-05-13T07:48:32;100662.38;;;28.47;26.04
74893;BME280;63446;56.272;43.922;2023-05-13T07:50:58;100663.56;;;28.46;25.88
74893;BME280;63446;56.272;43.922;2023-05-13T07:53:24;100666.25;;;28.42;25.65
74893;BME280;63446;56.272;43.922;2023-05-13T07:55:51;100666.25;;;28.39;25.77
74893;BME280;63446;56.272;43.922;2023-05-13T07:58:17;100666.56;;;28.30;25.70
74893;BME280;63446;56.272;43.922;2023-05-13T08:00:44;100663.75;;;28.12;25.50
74893;BME280;63446;56.272;43.922;2023-05-13T08:03:10;100665.63;;;28.01;25.48
74893;BME280;63446;56.272;43.922;2023-05-13T08:05:36;100658.22;;;27.91;26.16
74893;BME280;63446;56.272;43.922;2023-05-13T08:08:20;100657.78;;;27.82;25.50
74893;BME280;63446;56.272;43.922;2023-05-13T08:10:53;100661.19;;;27.71;25.65
74893;BME280;63446;56.272;43.922;2023-05-13T08:13:20;100664.19;;;27.63;26.01
74893;BME280;63446;56.272;43.922;2023-05-13T08:15:46;100657.94;;;27.55;25.61
74893;BME280;63446;56.272;43.922;2023-05-13T08:18:13;100659.84;;;27.51;26.21
74893;BME280;63446;56.272;43.922;2023-05-13T08:20:39;100658.28;;;27.46;26.08
74893;BME280;63446;56.272;43.922;2023-05-13T08:23:05;100659.03;;;27.43;26.20
74893;BME280;63446;56.272;43.922;2023-05-13T08:25:31;100662.47;;;27.40;25.89
74893;BME280;63446;56.272;43.922;2023-05-13T08:27:57;100658.16;;;27.32;25.39
74893;BME280;63446;56.272;43.922;2023-05-13T08:30:22;100652.97;;;27.16;25.57
74893;BME280;63446;56.272;43.922;2023-05-13T08:32:48;100655.84;;;26.93;26.14
74893;BME280;63446;56.272;43.922;2023-05-13T08:35:15;100653.31;;;26.74;26.09
74893;BME280;63446;56.272;43.922;2023-05-13T08:37:40;100654.28;;;26.55;26.52
74893;BME280;63446;56.272;43.922;2023-05-13T08:40:07;100646.34;;;26.43;26.39
74893;BME280;63446;56.272;43.922;2023-05-13T08:42:37;100644.03;;;26.41;26.62
74893;BME280;63446;56.272;43.922;2023-05-13T08:45:04;100646.47;;;26.50;26.48
74893;BME280;63446;56.272;43.922;2023-05-13T08:47:49;100652.84;;;26.65;25.93
74893;BME280;63446;56.272;43.922;2023-05-13T08:50:18;100652.53;;;26.73;25.78
74893;BME280;63446;56.272;43.922;2023-05-13T08:52:45;100647.91;;;26.74;25.63
74893;BME280;63446;56.272;43.922;2023-05-13T08:55:12;100648.66;;;26.74;25.73
74893;BME280;63446;56.272;43.922;2023-05-13T08:57:38;100642.50;;;26.77;26.11
74893;BME280;63446;56.272;43.922;2023-05-13T09:00:05;100643.66;;;26.76;25.50
74893;BME280;63446;56.272;43.922;2023-05-13T09:02:33;100638.31;;;26.84;25.78
74893;BME280;63446;56.272;43.922;2023-05-13T09:05:05;100637.97;;;26.89;25.83
74893;BME280;63446;56.272;43.922;2023-05-13T09:07:36;100636.13;;;26.96;25.52
74893;BME280;63446;56.272;43.922;2023-05-13T09:10:03;100638.88;;;27.00;25.46
74893;BME280;63446;56.272;43.922;2023-05-13T09:12:53;100636.16;;;27.00;25.69
74893;BME280;63446;56.272;43.922;2023-05-13T09:15:24;100632.28;;;27.01;26.56
74893;BME280;63446;56.272;43.922;2023-05-13T09:17:53;100627.19;;;26.96;25.97
74893;BME280;63446;56.272;43.922;2023-05-13T09:20:20;100633.72;;;26.88;25.46
74893;BME280;63446;56.272;43.922;2023-05-13T09:22:48;100624.34;;;26.82;25.56
74893;BME280;63446;56.272;43.922;2023-05-13T09:25:17;100635.56;;;26.80;25.56
74893;BME280;63446;56.272;43.922;2023-05-13T09:27:49;100626.94;;;26.71;25.78
74893;BME280;63446;56.272;43.922;2023-05-13T09:30:15;100625.28;;;26.59;26.18
74893;BME280;63446;56.272;43.922;2023-05-13T09:32:41;100626.38;;;26.54;25.93
74893;BME280;63446;56.272;43.922;2023-05-13T09:35:12;100626.44;;;26.58;25.97
74893;BME280;63446;56.272;43.922;2023-05-13T09:37:45;100629.22;;;26.65;25.71
74893;BME280;63446;56.272;43.922;2023-05-13T09:40:16;100627.38;;;26.73;25.36
74893;BME280;63446;56.272;43.922;2023-05-13T09:42:43;100623.97;;;26.80;25.52
74893;BME280;63446;56.272;43.922;2023-05-13T09:45:11;100627.50;;;26.87;25.27
74893;BME280;63446;56.272;43.922;2023-05-13T09:47:39;100622.59;;;27.00;25.76
74893;BME280;63446;56.272;43.922;2023-05-13T09:50:07;100626.53;;;27.06;25.69
74893;BME280;63446;56.272;43.922;2023-05-13T09:52:35;100628.16;;;27.11;25.46
74893;BME280;63446;56.272;43.922;2023-05-13T09:55:02;100615.75;;;27.13;25.31
74893;BME280;63446;56.272;43.922;2023-05-13T09:57:32;100611.91;;;27.14;25.14
74893;BME280;63446;56.272;43.922;2023-05-13T10:00:02;100611.41;;;27.09;24.57
74893;BME280;63446;56.272;43.922;2023-05-13T10:02:37;100605.44;;;26.89;24.57
74893;BME280;63446;56.272;43.922;2023-05-13T10:05:06;100602.50;;;26.64;24.83
74893;BME280;63446;56.272;43.922;2023-05-13T10:07:34;100608.81;;;26.41;25.40
74893;BME280;63446;56.272;43.922;2023-05-13T10:10:01;100602.53;;;26.34;25.28
74893;BME280;63446;56.272;43.922;2023-05-13T10:12:30;100593.16;;;26.27;26.04
74893;BME280;63446;56.272;43.922;2023-05-13T10:15:00;100600.03;;;26.18;25.42
74893;BME280;63446;56.272;43.922;2023-05-13T10:17:33;100596.94;;;26.19;25.26
74893;BME280;63446;56.272;43.922;2023-05-13T10:19:59;100604.31;;;26.22;25.31
74893;BME280;63446;56.272;43.922;2023-05-13T10:22:28;100598.09;;;26.18;25.51
74893;BME280;63446;56.272;43.922;2023-05-13T10:24:58;100599.22;;;26.17;24.95
74893;BME280;63446;56.272;43.922;2023-05-13T10:27:26;100600.03;;;26.18;25.17
74893;BME280;63446;56.272;43.922;2023-05-13T10:29:58;100590.78;;;26.22;24.94
74893;BME280;63446;56.272;43.922;2023-05-13T10:32:26;100583.34;;;26.16;25.14
74893;BME280;63446;56.272;43.922;2023-05-13T10:34:57;100588.31;;;26.10;24.91
74893;BME280;63446;56.272;43.922;2023-05-13T10:40:19;100585.91;;;26.05;25.00
74893;BME280;63446;56.272;43.922;2023-05-13T10:42:59;100603.13;;;25.90;24.97
74893;BME280;63446;56.272;43.922;2023-05-13T10:45:34;100595.34;;;25.85;24.58
74893;BME280;63446;56.272;43.922;2023-05-13T10:48:10;100584.84;;;25.79;24.33
74893;BME280;63446;56.272;43.922;2023-05-13T10:50:37;100589.50;;;25.83;23.96
74893;BME280;63446;56.272;43.922;2023-05-13T10:53:17;100600.69;;;25.81;23.47
74893;BME280;63446;56.272;43.922;2023-05-13T10:55:44;100592.94;;;25.79;23.18
74893;BME280;63446;56.272;43.922;2023-05-13T10:58:14;100599.41;;;25.75;23.04
74893;BME280;63446;56.272;43.922;2023-05-13T11:00:42;100590.47;;;25.71;23.24
74893;BME280;63446;56.272;43.922;2023-05-13T11:05:34;100597.81;;;25.70;23.61
74893;BME280;63446;56.272;43.922;2023-05-13T11:08:00;100597.06;;;25.73;23.55
74893;BME280;63446;56.272;43.922;2023-05-13T11:10:27;100585.53;;;25.76;23.37
74893;BME280;63446;56.272;43.922;2023-05-13T11:15:49;100587.94;;;25.81;23.13
74893;BME280;63446;56.272;43.922;2023-05-13T11:18:15;100584.88;;;25.83;23.46
74893;BME280;63446;56.272;43.922;2023-05-13T11:20:46;100599.66;;;25.89;23.63
74893;BME280;63446;56.272;43.922;2023-05-13T11:23:17;100588.13;;;25.96;23.28
74893;BME280;63446;56.272;43.922;2023-05-13T11:25:44;100589.72;;;26.00;22.95
74893;BME280;63446;56.272;43.922;2023-05-13T11:28:16;100590.88;;;25.99;23.21
74893;BME280;63446;56.272;43.922;2023-05-13T11:30:53;100586.63;;;25.98;23.10
74893;BME280;63446;56.272;43.922;2023-05-13T11:33:21;100575.78;;;25.98;22.76
74893;BME280;63446;56.272;43.922;2023-05-13T11:35:54;100578.84;;;25.97;22.65
74893;BME280;63446;56.272;43.922;2023-05-13T11:38:22;100587.34;;;25.95;22.09
74893;BME280;63446;56.272;43.922;2023-05-13T11:40:50;100576.06;;;25.90;22.14
74893;BME280;63446;56.272;43.922;2023-05-13T11:43:20;100579.91;;;25.89;22.19
74893;BME280;63446;56.272;43.922;2023-05-13T11:45:49;100579.91;;;25.89;22.49
74893;BME280;63446;56.272;43.922;2023-05-13T11:48:22;100576.06;;;25.90;22.47
74893;BME280;63446;56.272;43.922;2023-05-13T11:50:49;100589.19;;;25.88;22.91
74893;BME280;63446;56.272;43.922;2023-05-13T11:53:20;100586.16;;;25.93;23.01
74893;BME280;63446;56.272;43.922;2023-05-13T11:55:47;100580.41;;;25.98;23.20
74893;BME280;63446;56.272;43.922;2023-05-13T11:58:14;100582.00;;;25.99;23.17
74893;BME280;63446;56.272;43.922;2023-05-13T12:00:41;100578.84;;;25.97;23.26
74893;BME280;63446;56.272;43.922;2023-05-13T12:03:10;100575.75;;;25.95;23.70
74893;BME280;63446;56.272;43.922;2023-05-13T12:05:38;100587.34;;;25.95;23.77
74893;BME280;63446;56.272;43.922;2023-05-13T12:08:06;100579.28;;;25.99;23.81
74893;BME280;63446;56.272;43.922;2023-05-13T12:10:34;100581.59;;;26.00;23.89
74893;BME280;63446;56.272;43.922;2023-05-13T12:13:00;100576.25;;;26.04;24.10
74893;BME280;63446;56.272;43.922;2023-05-13T12:15:27;100577.78;;;26.05;23.93
74893;BME280;63446;56.272;43.922;2023-05-13T12:17:54;100577.44;;;26.07;24.18
74893;BME280;63446;56.272;43.922;2023-05-13T12:20:21;100577.78;;;26.05;24.54
74893;BME280;63446;56.272;43.922;2023-05-13T12:22:50;100576.16;;;25.97;24.69
74893;BME280;63446;56.272;43.922;2023-05-13T12:28:19;100588.31;;;25.80;24.83
74893;BME280;63446;56.272;43.922;2023-05-13T12:31:00;100588.53;;;25.71;25.06
74893;BME280;63446;56.272;43.922;2023-05-13T12:33:28;100588.09;;;25.66;24.71
74893;BME280;63446;56.272;43.922;2023-05-13T12:36:19;100587.63;;;25.60;24.92
74893;BME280;63446;56.272;43.922;2023-05-13T12:38:57;100592.28;;;25.63;25.15
74893;BME280;63446;56.272;43.922;2023-05-13T12:41:26;100583.94;;;25.72;25.29
74893;BME280;63446;56.272;43.922;2023-05-13T12:44:01;100583.41;;;25.89;25.21
74893;BME280;63446;56.272;43.922;2023-05-13T12:46:28;100581.31;;;26.09;25.17
74893;BME280;63446;56.272;43.922;2023-05-13T12:48:57;100579.28;;;26.33;25.28
74893;BME280;63446;56.272;43.922;2023-05-13T12:51:23;100588.44;;;26.54;25.30
74893;BME280;63446;56.272;43.922;2023-05-13T12:53:50;100589.78;;;26.71;25.11
74893;BME280;63446;56.272;43.922;2023-05-13T12:56:23;100589.91;;;26.86;25.16
74893;BME280;63446;56.272;43.922;2023-05-13T12:58:54;100601.59;;;26.93;25.20
74893;BME280;63446;56.272;43.922;2023-05-13T13:01:21;100600.13;;;26.99;25.71
74893;BME280;63446;56.272;43.922;2023-05-13T13:04:01;100602.41;;;26.97;26.06
74893;BME280;63446;56.272;43.922;2023-05-13T13:06:30;100601.56;;;26.90;27.24
74893;BME280;63446;56.272;43.922;2023-05-13T13:08:59;100595.69;;;26.81;27.49